Time;durP1;ratioP1;P1;durP2;ratioP2;P2;SDS_P1;SDS_P2;PMS_P1;PMS_P2;Temp;Humidity;BMP_temperature;BMP_pressure;BME280_temperature;BME280_humidity;BME280_pressure;Samples;Min_cycle;Max_cycle;Signal;HPM_P1;HPM_P2
2021/07/03 00:02:16;;;;;;;6.83;6.23;;;18.90;99.90;;;;;;5052388;28;20173;-76
2021/07/03 00:04:42;;;;;;;8.93;8.03;;;18.90;99.90;;;;;;5053737;28;20544;-80
2021/07/03 00:07:09;;;;;;;9.47;7.63;;;18.80;99.90;;;;;;5035167;28;20192;-81
2021/07/03 00:09:36;;;;;;;9.17;8.27;;;18.80;99.90;;;;;;5035884;28;20640;-80
2021/07/03 00:12:06;;;;;;;9.40;7.60;;;18.80;99.90;;;;;;5036150;28;20610;-80
2021/07/03 00:14:34;;;;;;;8.67;7.80;;;18.70;99.90;;;;;;5036789;28;20577;-80
2021/07/03 00:17:03;;;;;;;8.67;7.87;;;18.70;99.90;;;;;;5054628;28;20599;-80
2021/07/03 00:19:29;;;;;;;8.60;7.03;;;18.70;99.90;;;;;;5053246;28;20575;-80
2021/07/03 00:21:55;;;;;;;8.50;7.80;;;18.70;99.90;;;;;;5053238;28;20936;-80
2021/07/03 00:24:21;;;;;;;9.00;8.10;;;18.70;99.90;;;;;;5056949;28;20668;-80
2021/07/03 00:26:46;;;;;;;9.70;8.70;;;18.70;99.90;;;;;;5052338;28;20603;-81
2021/07/03 00:29:12;;;;;;;9.30;8.50;;;18.60;99.90;;;;;;5052127;28;20627;-81
2021/07/03 00:31:38;;;;;;;9.40;8.50;;;18.60;99.90;;;;;;5052345;28;20165;-81
2021/07/03 00:34:04;;;;;;;8.70;7.80;;;18.60;99.90;;;;;;5052045;28;20188;-81
2021/07/03 00:36:30;;;;;;;8.73;6.77;;;18.60;99.90;;;;;;5050577;28;20797;-82
2021/07/03 00:38:56;;;;;;;10.30;9.30;;;18.60;99.90;;;;;;5052013;28;20658;-82
2021/07/03 00:41:22;;;;;;;8.53;7.50;;;18.60;99.90;;;;;;5034273;28;20177;-82
2021/07/03 00:43:51;;;;;;;6.70;6.00;;;18.70;99.90;;;;;;5050960;28;20642;-82
2021/07/03 00:46:17;;;;;;;7.77;7.07;;;18.60;99.90;;;;;;5050608;28;20603;-82
2021/07/03 00:48:45;;;;;;;7.53;6.30;;;18.70;99.90;;;;;;5034139;28;20730;-82
2021/07/03 00:51:12;;;;;;;8.50;7.23;;;18.70;99.90;;;;;;5050733;28;21130;-82
2021/07/03 00:53:40;;;;;;;8.47;5.93;;;18.70;99.90;;;;;;5051083;28;20572;-82
2021/07/03 00:56:06;;;;;;;9.47;7.30;;;18.70;99.90;;;;;;5053398;28;20611;-82
2021/07/03 00:58:32;;;;;;;6.37;5.60;;;18.70;99.90;;;;;;5054758;28;20678;-82
2021/07/03 01:00:59;;;;;;;8.83;7.50;;;18.70;99.90;;;;;;5055796;28;21279;-82
2021/07/03 01:03:25;;;;;;;6.93;6.27;;;18.70;99.90;;;;;;5053434;28;20633;-83
2021/07/03 01:05:52;;;;;;;7.70;6.90;;;18.70;99.90;;;;;;5052060;28;20567;-82
2021/07/03 01:08:20;;;;;;;7.17;6.47;;;18.70;99.90;;;;;;5050496;28;20631;-82
2021/07/03 01:10:46;;;;;;;7.33;6.73;;;18.70;99.90;;;;;;5034383;28;21098;-82
2021/07/03 01:13:33;;;;;;;6.93;6.37;;;18.70;99.90;;;;;;5034462;28;20579;-82
2021/07/03 01:16:07;;;;;;;8.43;7.00;;;18.70;99.90;;;;;;5052924;28;20591;-83
2021/07/03 01:18:36;;;;;;;10.20;6.60;;;18.70;99.90;;;;;;5052393;28;20678;-83
2021/07/03 01:21:02;;;;;;;7.60;6.77;;;18.60;99.90;;;;;;5054276;28;20626;-83
2021/07/03 01:23:28;;;;;;;9.17;7.40;;;18.60;99.90;;;;;;5041581;28;20231;-83
2021/07/03 01:25:58;;;;;;;8.20;7.40;;;18.60;99.90;;;;;;5044129;28;21416;-83
2021/07/03 01:28:28;;;;;;;7.77;7.07;;;18.60;99.90;;;;;;5052626;28;20329;-83
2021/07/03 01:30:55;;;;;;;8.13;7.23;;;18.60;99.90;;;;;;5067021;28;20654;-83
2021/07/03 01:33:21;;;;;;;7.23;6.53;;;18.60;99.90;;;;;;5060830;28;20606;-83
2021/07/03 01:35:48;;;;;;;7.93;7.13;;;18.60;99.90;;;;;;5043661;28;20595;-83
2021/07/03 01:38:20;;;;;;;6.60;5.77;;;18.60;99.90;;;;;;5055588;28;20576;-83
2021/07/03 01:40:47;;;;;;;7.73;7.03;;;18.50;99.90;;;;;;5072151;28;20981;-83
2021/07/03 01:43:27;;;;;;;7.03;6.43;;;18.50;99.90;;;;;;5054214;28;20567;-83
2021/07/03 01:45:57;;;;;;;6.60;6.00;;;18.40;99.90;;;;;;5054237;28;20589;-83
2021/07/03 01:48:27;;;;;;;8.70;7.00;;;18.40;99.90;;;;;;5071739;28;21242;-81
2021/07/03 01:50:54;;;;;;;8.27;7.47;;;18.40;99.90;;;;;;5052469;28;20583;-82
2021/07/03 01:53:22;;;;;;;7.77;6.80;;;18.40;99.90;;;;;;5045637;28;21007;-81
2021/07/03 01:55:48;;;;;;;6.83;6.23;;;18.30;99.90;;;;;;5040131;28;20629;-80
2021/07/03 01:58:22;;;;;;;8.17;7.37;;;18.30;99.90;;;;;;5056629;28;20586;-81
2021/07/03 02:00:58;;;;;;;8.77;7.30;;;18.20;99.90;;;;;;5039225;28;21046;-81
2021/07/03 02:03:26;;;;;;;7.60;6.77;;;18.20;99.90;;;;;;5054859;28;20589;-81
2021/07/03 02:05:53;;;;;;;8.67;7.77;;;18.20;99.90;;;;;;5037398;28;20586;-81
2021/07/03 02:08:21;;;;;;;8.47;7.67;;;18.10;99.90;;;;;;5037504;28;20638;-81
2021/07/03 02:11:00;;;;;;;6.67;6.07;;;18.10;99.90;;;;;;5055422;28;20585;-82
2021/07/03 02:13:29;;;;;;;7.43;6.73;;;18.10;99.90;;;;;;5058864;28;20594;-81
2021/07/03 02:15:55;;;;;;;7.33;6.43;;;18.10;99.90;;;;;;5054954;28;20980;-82
2021/07/03 02:18:28;;;;;;;8.63;7.37;;;18.10;99.90;;;;;;5053455;28;20575;-83
2021/07/03 02:20:56;;;;;;;8.03;6.80;;;18.00;99.90;;;;;;5054580;28;20598;-81
2021/07/03 02:23:26;;;;;;;10.77;8.13;;;18.00;99.90;;;;;;5054030;28;20594;-81
2021/07/03 02:25:55;;;;;;;10.80;7.97;;;18.00;99.90;;;;;;5053521;28;20575;-81
2021/07/03 02:28:26;;;;;;;6.80;6.10;;;18.00;99.90;;;;;;5054250;28;20981;-82
2021/07/03 02:31:01;;;;;;;9.60;7.50;;;18.00;99.90;;;;;;5053382;28;20586;-81
2021/07/03 02:33:32;;;;;;;9.67;7.50;;;17.90;99.90;;;;;;5051728;28;20686;-81
2021/07/03 02:35:59;;;;;;;7.77;7.17;;;17.90;99.90;;;;;;5054048;28;20583;-81
2021/07/03 02:38:28;;;;;;;7.47;6.73;;;17.90;99.90;;;;;;5036186;28;20578;-81
2021/07/03 02:40:54;;;;;;;8.50;7.60;;;17.80;99.90;;;;;;5036826;28;20575;-81
2021/07/03 02:43:21;;;;;;;7.77;7.07;;;17.80;99.90;;;;;;5055730;28;20587;-82
2021/07/03 02:45:51;;;;;;;7.70;7.10;;;17.80;99.90;;;;;;5054415;28;20572;-82
2021/07/03 02:48:17;;;;;;;8.50;7.33;;;17.80;99.90;;;;;;5037362;28;20731;-82
2021/07/03 02:50:44;;;;;;;9.33;7.27;;;17.70;99.90;;;;;;5060151;28;20567;-82
2021/07/03 02:53:10;;;;;;;7.77;6.83;;;17.70;99.90;;;;;;5038588;28;20576;-82
2021/07/03 02:55:37;;;;;;;7.80;7.00;;;17.70;99.90;;;;;;5055473;28;20924;-82
2021/07/03 02:58:04;;;;;;;7.67;6.27;;;17.70;99.90;;;;;;5056659;28;20619;-83
2021/07/03 03:00:32;;;;;;;7.93;7.13;;;17.70;99.90;;;;;;5056797;28;20939;-83
2021/07/03 03:02:57;;;;;;;7.83;7.10;;;17.70;99.90;;;;;;5057347;28;20583;-83
2021/07/03 03:05:24;;;;;;;8.07;7.27;;;17.70;99.90;;;;;;5064151;28;20598;-83
2021/07/03 03:07:50;;;;;;;7.40;6.70;;;17.70;99.90;;;;;;5039779;28;20607;-82
2021/07/03 03:10:18;;;;;;;9.17;8.27;;;17.70;99.90;;;;;;5039078;28;20608;-82
2021/07/03 03:12:47;;;;;;;8.20;6.53;;;17.70;99.90;;;;;;5054688;28;20931;-81
2021/07/03 03:15:17;;;;;;;11.53;6.67;;;17.70;99.90;;;;;;5052572;28;20583;-83
2021/07/03 03:17:43;;;;;;;7.53;6.83;;;17.70;99.90;;;;;;5052425;28;20607;-81
2021/07/03 03:20:12;;;;;;;8.40;7.60;;;17.70;99.90;;;;;;5052203;28;20682;-81
2021/07/03 03:22:39;;;;;;;7.87;7.07;;;17.70;99.90;;;;;;5053814;28;20575;-81
2021/07/03 03:25:07;;;;;;;7.77;7.07;;;17.60;99.90;;;;;;5036420;28;20578;-82
2021/07/03 03:27:36;;;;;;;8.70;7.80;;;17.60;99.90;;;;;;5056547;28;20610;-82
2021/07/03 03:30:02;;;;;;;7.70;6.90;;;17.60;99.90;;;;;;5051944;28;20619;-82
2021/07/03 03:32:28;;;;;;;8.43;7.63;;;17.60;99.90;;;;;;5053593;28;21015;-82
2021/07/03 03:34:55;;;;;;;8.87;8.07;;;17.60;99.90;;;;;;5052537;28;20728;-82
2021/07/03 03:37:21;;;;;;;7.20;6.50;;;17.60;99.90;;;;;;5052461;28;20599;-82
2021/07/03 03:39:47;;;;;;;7.30;6.70;;;17.60;99.90;;;;;;5055811;28;20575;-81
2021/07/03 03:42:13;;;;;;;7.63;6.83;;;17.60;99.90;;;;;;5056468;28;20591;-81
2021/07/03 03:44:40;;;;;;;8.10;7.17;;;17.60;99.90;;;;;;5056472;28;21123;-82
2021/07/03 03:47:06;;;;;;;6.70;6.20;;;17.60;99.90;;;;;;5057124;28;20625;-81
2021/07/03 03:49:35;;;;;;;8.70;6.93;;;17.60;99.90;;;;;;5039876;28;20216;-80
2021/07/03 03:52:06;;;;;;;6.87;6.27;;;17.60;99.90;;;;;;5054979;28;20634;-82
2021/07/03 03:54:32;;;;;;;6.63;5.77;;;17.60;99.90;;;;;;5038522;28;20563;-82
2021/07/03 03:59:46;;;;;;;8.50;7.70;;;17.70;99.90;;;;;;5056787;28;20571;-82
2021/07/03 04:02:11;;;;;;;6.70;5.90;;;17.80;99.90;;;;;;5058298;28;21110;-81
2021/07/03 04:04:38;;;;;;;7.47;6.67;;;17.80;99.90;;;;;;5059658;28;21004;-81
2021/07/03 04:07:04;;;;;;;7.80;6.13;;;17.80;99.90;;;;;;5058533;28;20611;-83
2021/07/03 04:09:31;;;;;;;7.27;6.00;;;17.80;99.90;;;;;;5040972;28;20620;-82
2021/07/03 04:11:57;;;;;;;7.37;6.77;;;17.90;99.90;;;;;;5057795;28;20606;-82
2021/07/03 04:14:23;;;;;;;6.90;6.30;;;17.90;99.90;;;;;;5057565;28;20551;-83
2021/07/03 04:16:49;;;;;;;8.13;7.20;;;17.90;99.90;;;;;;5057193;28;21250;-82
2021/07/03 04:19:15;;;;;;;7.20;6.43;;;17.90;99.90;;;;;;5055827;28;20165;-82
2021/07/03 04:21:41;;;;;;;6.57;5.83;;;17.90;99.90;;;;;;5054830;28;20580;-83
2021/07/03 04:24:06;;;;;;;6.10;5.60;;;18.00;99.90;;;;;;5057130;28;20161;-83
2021/07/03 04:26:32;;;;;;;6.70;6.03;;;18.00;99.90;;;;;;5043110;28;20189;-82
2021/07/03 04:28:58;;;;;;;6.20;5.60;;;18.10;99.90;;;;;;5066165;28;20189;-82
2021/07/03 04:31:23;;;;;;;6.93;6.23;;;18.10;99.90;;;;;;5067464;28;20184;-83
2021/07/03 04:33:49;;;;;;;5.33;4.83;;;18.10;99.90;;;;;;5060249;28;20172;-83
2021/07/03 04:36:15;;;;;;;6.83;5.70;;;18.20;99.90;;;;;;5063781;28;20196;-83
2021/07/03 04:38:40;;;;;;;6.50;5.90;;;18.20;99.90;;;;;;5063330;28;20232;-83
2021/07/03 04:41:08;;;;;;;7.43;6.13;;;18.20;99.90;;;;;;5057591;28;20177;-83
2021/07/03 04:43:34;;;;;;;6.47;5.90;;;18.20;99.90;;;;;;5054367;28;20885;-82
2021/07/03 04:46:00;;;;;;;6.90;6.27;;;18.20;99.90;;;;;;5057505;28;20183;-82
2021/07/03 04:48:26;;;;;;;6.43;5.83;;;18.20;99.90;;;;;;5072256;28;20219;-82
2021/07/03 04:50:52;;;;;;;6.87;6.20;;;18.20;99.90;;;;;;5053198;28;20567;-82
2021/07/03 04:53:18;;;;;;;7.40;6.03;;;18.20;99.90;;;;;;5036158;28;20169;-83
2021/07/03 04:55:45;;;;;;;7.03;6.40;;;18.20;99.90;;;;;;5052562;28;20169;-82
2021/07/03 04:58:14;;;;;;;7.67;6.50;;;18.20;99.90;;;;;;5054427;28;20696;-83
2021/07/03 05:00:40;;;;;;;6.90;6.30;;;18.20;99.90;;;;;;5051196;28;20572;-83
2021/07/03 05:03:06;;;;;;;5.93;5.43;;;18.30;99.90;;;;;;5056207;28;20637;-82
2021/07/03 05:05:32;;;;;;;6.20;5.60;;;18.30;99.90;;;;;;5057811;28;20924;-84
2021/07/03 05:07:58;;;;;;;5.70;5.20;;;18.40;99.90;;;;;;5060939;28;20192;-83
2021/07/03 05:10:24;;;;;;;6.67;6.07;;;18.40;99.90;;;;;;5068260;28;20164;-82
2021/07/03 05:12:49;;;;;;;6.50;5.77;;;18.40;99.90;;;;;;5057951;28;20191;-82
2021/07/03 05:15:17;;;;;;;6.73;6.00;;;18.50;99.90;;;;;;5071454;28;20165;-82
2021/07/03 05:17:43;;;;;;;5.90;5.40;;;18.50;99.90;;;;;;5044882;28;20193;-82
2021/07/03 05:20:10;;;;;;;5.97;5.30;;;18.50;99.90;;;;;;5004307;28;20581;-82
2021/07/03 05:22:37;;;;;;;6.70;5.80;;;18.60;99.90;;;;;;5032152;28;20289;-82
2021/07/03 05:25:05;;;;;;;5.73;5.23;;;18.60;99.90;;;;;;5026792;28;20564;-80
2021/07/03 05:27:36;;;;;;;6.20;5.40;;;18.70;99.90;;;;;;5039462;28;20959;-81
2021/07/03 05:30:04;;;;;;;7.70;6.03;;;18.80;99.90;;;;;;5039993;28;20630;-81
2021/07/03 05:32:29;;;;;;;5.63;5.00;;;18.80;99.90;;;;;;5042064;28;21112;-81
2021/07/03 05:34:55;;;;;;;6.00;5.40;;;18.80;99.90;;;;;;5040574;28;20571;-81
2021/07/03 05:37:23;;;;;;;5.63;5.20;;;18.90;99.90;;;;;;5020630;28;20189;-82
2021/07/03 05:39:49;;;;;;;6.53;5.93;;;19.00;99.90;;;;;;5021229;28;20581;-82
2021/07/03 05:42:15;;;;;;;7.70;6.37;;;19.10;99.90;;;;;;5024020;28;20573;-81
2021/07/03 05:44:41;;;;;;;6.90;6.20;;;19.20;99.90;;;;;;5041884;28;20680;-81
2021/07/03 05:47:07;;;;;;;8.37;6.00;;;19.30;99.90;;;;;;5037337;28;20192;-81
2021/07/03 05:49:35;;;;;;;6.73;5.80;;;19.50;99.90;;;;;;5043221;28;20670;-81
2021/07/03 05:52:02;;;;;;;7.10;5.23;;;19.90;99.90;;;;;;5028045;28;20580;-81
2021/07/03 05:54:31;;;;;;;4.63;4.23;;;20.20;99.90;;;;;;5043079;28;20598;-81
2021/07/03 05:57:06;;;;;;;4.90;4.23;;;20.70;99.90;;;;;;5039014;28;20616;-81
2021/07/03 05:59:32;;;;;;;5.43;4.90;;;21.30;99.90;;;;;;5037862;28;20933;-81
2021/07/03 06:01:57;;;;;;;5.33;4.93;;;22.40;99.90;;;;;;5041290;28;20639;-80
2021/07/03 06:04:23;;;;;;;5.83;5.33;;;23.20;99.90;;;;;;5019288;28;20573;-82
2021/07/03 06:06:50;;;;;;;5.50;5.00;;;24.10;99.90;;;;;;5038821;28;20185;-81
2021/07/03 06:09:16;;;;;;;5.27;4.80;;;24.70;99.90;;;;;;5043267;28;20593;-81
2021/07/03 06:11:42;;;;;;;4.90;4.40;;;25.40;99.90;;;;;;5047341;28;20568;-81
2021/07/03 06:14:09;;;;;;;7.33;4.10;;;25.90;99.90;;;;;;5052010;28;20194;-81
2021/07/03 06:16:34;;;;;;;5.60;5.07;;;26.60;99.90;;;;;;5019765;28;20627;-83
2021/07/03 06:19:01;;;;;;;5.70;5.20;;;27.30;99.90;;;;;;5038767;28;20572;-82
2021/07/03 06:21:27;;;;;;;4.20;3.90;;;27.70;99.90;;;;;;5021355;28;20170;-82
2021/07/03 06:23:53;;;;;;;4.60;4.30;;;28.20;99.90;;;;;;5036888;28;20680;-82
2021/07/03 06:26:19;;;;;;;4.83;4.43;;;28.90;99.90;;;;;;5036793;28;20644;-81
2021/07/03 06:28:45;;;;;;;3.97;3.67;;;29.40;99.90;;;;;;5036332;28;20618;-81
2021/07/03 06:31:11;;;;;;;4.33;4.03;;;30.00;99.90;;;;;;5041528;28;20665;-83
2021/07/03 06:33:37;;;;;;;4.07;3.77;;;30.30;99.90;;;;;;5034569;28;20561;-83
2021/07/03 06:36:02;;;;;;;5.00;4.47;;;30.40;99.90;;;;;;5034371;28;20186;-83
2021/07/03 06:38:28;;;;;;;4.87;4.37;;;30.80;99.90;;;;;;5034224;28;20568;-83
2021/07/03 06:40:54;;;;;;;4.57;4.13;;;31.20;99.90;;;;;;5041165;28;20200;-82
2021/07/03 06:43:20;;;;;;;5.50;5.00;;;31.50;99.50;;;;;;5022083;28;20186;-82
2021/07/03 06:45:45;;;;;;;4.97;4.47;;;31.90;99.00;;;;;;5017008;28;20599;-83
2021/07/03 06:48:11;;;;;;;5.87;3.87;;;32.30;97.90;;;;;;5035469;28;20716;-83
2021/07/03 06:50:37;;;;;;;4.60;4.10;;;32.70;96.10;;;;;;5035384;28;20167;-83
2021/07/03 06:53:03;;;;;;;4.53;4.17;;;33.00;95.80;;;;;;5035864;28;20181;-84
2021/07/03 06:55:29;;;;;;;3.80;3.40;;;33.40;95.20;;;;;;5039001;28;20570;-84
2021/07/03 06:57:55;;;;;;;3.93;3.17;;;33.70;94.10;;;;;;5043979;28;20295;-83
2021/07/03 07:00:21;;;;;;;4.07;3.77;;;34.10;93.90;;;;;;5026333;28;20187;-83
2021/07/03 07:02:47;;;;;;;4.43;3.40;;;34.30;90.60;;;;;;5043320;28;20162;-79
2021/07/03 07:05:13;;;;;;;3.90;3.50;;;34.50;87.90;;;;;;5037050;28;20971;-79
2021/07/03 07:07:39;;;;;;;4.73;4.00;;;34.50;85.20;;;;;;5025568;28;20592;-81
2021/07/03 07:10:05;;;;;;;5.60;2.90;;;34.30;81.40;;;;;;5016293;28;20715;-80
2021/07/03 07:12:31;;;;;;;3.30;3.00;;;34.40;81.60;;;;;;5016271;28;20584;-80
2021/07/03 07:14:57;;;;;;;3.73;3.30;;;34.60;82.40;;;;;;5033648;28;20556;-80
2021/07/03 07:17:23;;;;;;;3.80;3.37;;;34.90;80.70;;;;;;5015454;28;20193;-81
2021/07/03 07:19:49;;;;;;;4.30;3.90;;;35.40;80.90;;;;;;5032581;28;20532;-85
2021/07/03 07:22:15;;;;;;;5.03;4.17;;;35.60;77.50;;;;;;5034056;28;20173;-83
2021/07/03 07:24:41;;;;;;;3.43;3.20;;;35.90;75.50;;;;;;5033320;28;21167;-82
2021/07/03 07:27:07;;;;;;;4.27;3.97;;;36.20;72.60;;;;;;5033551;28;20209;-84
2021/07/03 07:29:33;;;;;;;3.40;3.10;;;36.40;72.90;;;;;;5033505;28;20635;-83
2021/07/03 07:32:00;;;;;;;3.37;3.07;;;36.90;71.10;;;;;;5032563;28;20931;-85
2021/07/03 07:34:27;;;;;;;4.40;3.37;;;37.00;68.80;;;;;;5034405;28;20568;-82
2021/07/03 07:36:52;;;;;;;3.60;3.30;;;36.80;65.00;;;;;;5015759;28;20596;-82
2021/07/03 07:39:18;;;;;;;4.43;4.03;;;36.50;62.50;;;;;;5017947;28;21303;-82
2021/07/03 07:41:45;;;;;;;4.50;3.60;;;36.20;60.40;;;;;;5017572;28;20534;-82
2021/07/03 07:44:11;;;;;;;5.00;3.40;;;36.20;62.60;;;;;;5036974;28;20536;-81
2021/07/03 07:46:37;;;;;;;3.80;3.13;;;36.50;61.60;;;;;;5034480;28;20624;-82
2021/07/03 07:49:04;;;;;;;3.30;3.00;;;36.90;63.50;;;;;;5024996;28;20197;-82
2021/07/03 07:51:30;;;;;;;2.80;2.50;;;37.10;62.30;;;;;;5043811;28;20245;-82
2021/07/03 07:53:56;;;;;;;3.93;3.63;;;37.20;60.90;;;;;;5034784;28;20579;-82
2021/07/03 07:56:22;;;;;;;3.50;3.20;;;37.10;59.20;;;;;;4982956;28;20624;-79
2021/07/03 07:58:48;;;;;;;3.03;2.83;;;36.90;58.50;;;;;;5015174;28;20180;-78
2021/07/03 08:01:14;;;;;;;3.67;3.30;;;36.90;58.60;;;;;;5027957;28;20655;-78
2021/07/03 08:03:41;;;;;;;3.57;3.23;;;36.80;56.90;;;;;;4995314;28;20627;-77
2021/07/03 08:06:07;;;;;;;3.90;3.60;;;36.70;57.20;;;;;;5013149;28;20601;-77
2021/07/03 08:08:32;;;;;;;4.77;3.60;;;36.60;57.50;;;;;;5010540;28;20675;-77
2021/07/03 08:10:58;;;;;;;3.30;2.63;;;36.70;57.20;;;;;;4994039;28;20250;-77
2021/07/03 08:13:24;;;;;;;4.00;2.80;;;37.00;58.20;;;;;;5012548;28;20646;-77
2021/07/03 08:15:50;;;;;;;3.87;3.43;;;37.40;57.10;;;;;;5012695;28;20264;-78
2021/07/03 08:18:19;;;;;;;3.07;2.63;;;37.60;56.90;;;;;;5012479;28;20541;-78
2021/07/03 08:20:45;;;;;;;3.50;3.20;;;38.00;57.00;;;;;;4979242;28;20923;-76
2021/07/03 08:23:11;;;;;;;3.30;3.00;;;38.50;56.20;;;;;;5012485;28;20574;-76
2021/07/03 08:25:37;;;;;;;3.20;2.87;;;38.70;55.60;;;;;;5012339;28;20573;-77
2021/07/03 08:28:03;;;;;;;3.67;3.37;;;39.10;55.20;;;;;;5010707;28;20252;-77
2021/07/03 08:30:29;;;;;;;3.13;2.93;;;39.40;54.00;;;;;;4994754;28;20635;-80
2021/07/03 08:32:55;;;;;;;3.03;2.83;;;39.20;51.40;;;;;;4994540;28;20605;-78
2021/07/03 08:35:21;;;;;;;2.97;2.60;;;39.20;51.90;;;;;;4994804;28;21153;-79
2021/07/03 08:37:47;;;;;;;4.37;3.17;;;39.30;52.30;;;;;;5010959;28;20604;-78
2021/07/03 08:40:14;;;;;;;3.63;3.33;;;39.60;52.40;;;;;;5010777;28;20181;-78
2021/07/03 08:42:40;;;;;;;2.80;2.33;;;39.60;50.90;;;;;;4994845;28;20585;-78
2021/07/03 08:45:08;;;;;;;3.70;2.63;;;39.60;50.50;;;;;;4994709;28;20580;-78
2021/07/03 08:47:40;;;;;;;2.60;2.40;;;39.40;49.70;;;;;;4994195;28;20637;-78
2021/07/03 08:50:06;;;;;;;2.90;2.70;;;39.40;49.30;;;;;;4977905;28;21240;-78
2021/07/03 08:52:32;;;;;;;2.73;2.53;;;39.40;49.30;;;;;;5012223;28;20573;-78
2021/07/03 08:55:07;;;;;;;3.37;3.10;;;39.50;49.80;;;;;;5011060;28;20576;-78
2021/07/03 08:58:04;;;;;;;2.50;2.30;;;39.80;49.10;;;;;;5013531;28;20223;-79
2021/07/03 09:00:41;;;;;;;3.77;3.00;;;40.00;49.50;;;;;;4981527;28;20701;-81
2021/07/03 09:03:14;;;;;;;3.83;3.53;;;40.00;47.90;;;;;;5018522;28;20634;-83
2021/07/03 09:05:51;;;;;;;3.13;2.70;;;40.20;46.40;;;;;;5016622;28;20569;-80
2021/07/03 09:08:18;;;;;;;2.70;2.50;;;40.10;46.70;;;;;;5014430;28;20972;-81
2021/07/03 09:10:44;;;;;;;2.60;2.40;;;40.30;46.80;;;;;;5012019;28;20700;-80
2021/07/03 09:13:11;;;;;;;2.50;2.30;;;40.30;46.70;;;;;;5011916;28;20587;-80
2021/07/03 09:15:44;;;;;;;2.97;1.80;;;40.50;46.80;;;;;;5010515;28;20650;-80
2021/07/03 09:18:14;;;;;;;2.70;2.50;;;41.00;47.10;;;;;;5011002;28;20580;-79
2021/07/03 09:20:55;;;;;;;2.70;2.00;;;41.30;46.30;;;;;;4994349;28;20957;-79
2021/07/03 09:23:31;;;;;;;3.47;2.77;;;41.40;45.10;;;;;;5011905;28;21125;-79
2021/07/03 09:26:02;;;;;;;2.67;2.13;;;41.80;45.80;;;;;;4994190;28;20719;-80
2021/07/03 09:28:31;;;;;;;3.13;2.47;;;41.80;44.20;;;;;;4993919;28;20991;-80
2021/07/03 09:31:01;;;;;;;3.03;2.17;;;41.90;44.90;;;;;;5011898;28;20576;-80
2021/07/03 09:33:31;;;;;;;2.23;2.13;;;42.00;43.90;;;;;;5012385;28;20669;-80
2021/07/03 09:35:59;;;;;;;2.40;2.20;;;42.20;43.90;;;;;;4993947;28;20566;-78
2021/07/03 09:38:35;;;;;;;4.77;2.60;;;42.30;43.70;;;;;;5011327;28;20597;-78
2021/07/03 09:41:21;;;;;;;5.20;3.53;;;42.60;42.70;;;;;;5012721;28;20569;-85
2021/07/03 09:43:52;;;;;;;2.30;2.03;;;42.90;43.60;;;;;;5015197;28;20575;-86
2021/07/03 09:46:31;;;;;;;3.13;2.37;;;43.00;42.30;;;;;;5016210;28;20606;-85
2021/07/03 09:48:58;;;;;;;2.90;2.67;;;43.10;42.40;;;;;;5016036;28;20625;-86
2021/07/03 09:51:33;;;;;;;4.33;3.10;;;43.30;42.20;;;;;;5016695;28;20569;-85
2021/07/03 09:54:00;;;;;;;2.40;2.20;;;43.40;41.10;;;;;;5000466;28;21373;-82
2021/07/03 09:56:27;;;;;;;2.43;2.23;;;43.40;41.50;;;;;;5021189;28;20620;-83
2021/07/03 09:58:53;;;;;;;3.13;2.30;;;43.40;41.90;;;;;;5021765;28;20646;-82
2021/07/03 10:01:19;;;;;;;2.30;2.00;;;43.30;40.70;;;;;;5018690;28;20664;-82
2021/07/03 10:03:45;;;;;;;2.67;2.00;;;43.40;41.30;;;;;;4999535;28;20580;-82
2021/07/03 10:06:19;;;;;;;3.23;2.10;;;43.30;40.40;;;;;;4999146;28;21176;-85
2021/07/03 10:08:48;;;;;;;1.83;1.73;;;43.20;39.90;;;;;;5015549;28;21022;-84
2021/07/03 10:11:22;;;;;;;2.73;1.73;;;43.00;39.20;;;;;;5015834;28;20569;-84
2021/07/03 10:13:51;;;;;;;6.33;3.37;;;43.10;39.00;;;;;;5034798;28;20592;-83
2021/07/03 10:16:21;;;;;;;2.20;2.00;;;43.00;39.40;;;;;;5005804;28;20980;-80
2021/07/03 10:18:47;;;;;;;2.83;2.20;;;43.10;39.00;;;;;;4997300;28;20635;-81
2021/07/03 10:21:17;;;;;;;29.73;9.10;;;43.20;38.90;;;;;;5013893;28;20565;-81
2021/07/03 10:23:44;;;;;;;3.50;2.10;;;43.30;38.90;;;;;;5014834;28;20170;-81
2021/07/03 10:26:11;;;;;;;2.83;2.40;;;43.40;39.00;;;;;;5014593;28;20605;-82
2021/07/03 10:28:39;;;;;;;2.40;2.20;;;43.60;38.90;;;;;;5014532;28;21022;-81
2021/07/03 10:31:09;;;;;;;2.43;1.90;;;43.70;38.70;;;;;;5015001;28;20564;-82
2021/07/03 10:33:51;;;;;;;2.63;2.43;;;43.90;39.60;;;;;;5014937;28;20611;-81
2021/07/03 10:36:26;;;;;;;2.10;1.90;;;44.10;38.20;;;;;;4997144;28;20601;-82
2021/07/03 10:38:53;;;;;;;2.73;2.30;;;44.20;38.30;;;;;;5014223;28;21154;-81
2021/07/03 10:41:24;;;;;;;2.30;1.93;;;44.20;37.60;;;;;;4997222;28;20573;-81
2021/07/03 10:43:58;;;;;;;2.20;2.00;;;44.30;37.30;;;;;;5014678;28;20587;-81
2021/07/03 10:46:33;;;;;;;2.73;2.53;;;44.20;36.90;;;;;;5016679;28;20597;-83
2021/07/03 10:49:04;;;;;;;2.33;2.13;;;43.90;36.50;;;;;;4998544;28;20651;-83
2021/07/03 10:51:33;;;;;;;4.27;2.10;;;43.50;36.00;;;;;;4997698;28;20958;-83
2021/07/03 10:54:08;;;;;;;3.90;2.10;;;42.80;36.00;;;;;;5014475;28;20565;-82
2021/07/03 10:56:50;;;;;;;3.00;2.27;;;42.60;36.30;;;;;;5017086;28;21085;-82
2021/07/03 10:59:17;;;;;;;2.93;1.83;;;42.20;36.30;;;;;;5016801;28;20969;-82
2021/07/03 11:01:44;;;;;;;3.00;2.07;;;41.40;36.30;;;;;;5028011;28;20565;-83
2021/07/03 11:04:16;;;;;;;1.70;1.60;;;41.00;37.90;;;;;;5010691;28;21104;-81
2021/07/03 11:06:45;;;;;;;2.30;2.10;;;40.80;38.10;;;;;;5027957;28;20686;-81
2021/07/03 11:09:21;;;;;;;2.70;2.30;;;40.80;39.00;;;;;;5019879;28;20651;-81
2021/07/03 11:11:47;;;;;;;2.27;2.07;;;40.90;38.60;;;;;;4998263;28;20588;-81
2021/07/03 11:14:22;;;;;;;2.70;2.50;;;40.90;39.50;;;;;;5017054;28;20569;-81
2021/07/03 11:16:58;;;;;;;3.50;2.80;;;41.00;38.40;;;;;;4982199;28;20589;-82
2021/07/03 11:19:26;;;;;;;3.63;2.40;;;41.10;39.10;;;;;;4996242;28;20632;-81
2021/07/03 11:22:04;;;;;;;4.07;1.93;;;41.20;38.80;;;;;;4996851;28;20619;-82
2021/07/03 11:24:49;;;;;;;4.10;2.30;;;41.20;38.70;;;;;;5020869;28;20583;-81
2021/07/03 11:27:24;;;;;;;2.23;2.03;;;41.20;38.90;;;;;;5016880;28;21043;-82
2021/07/03 11:29:50;;;;;;;2.83;2.63;;;41.20;38.80;;;;;;5013591;28;21025;-83
2021/07/03 11:32:22;;;;;;;3.77;2.30;;;41.20;39.10;;;;;;5013677;28;20557;-81
2021/07/03 11:34:57;;;;;;;5.77;2.97;;;41.20;38.80;;;;;;5013572;28;20162;-81
2021/07/03 11:37:33;;;;;;;2.83;2.10;;;41.10;38.40;;;;;;5013378;28;21491;-81
2021/07/03 11:40:06;;;;;;;2.50;2.30;;;41.10;38.20;;;;;;5014445;28;20628;-81
2021/07/03 11:42:34;;;;;;;3.30;2.83;;;41.00;39.00;;;;;;5013703;28;20577;-81
2021/07/03 11:45:00;;;;;;;3.57;3.27;;;40.90;38.30;;;;;;5013584;28;20594;-81
2021/07/03 11:47:34;;;;;;;2.30;2.10;;;40.80;38.10;;;;;;5011978;28;20642;-81
2021/07/03 11:50:00;;;;;;;2.70;2.07;;;40.70;37.70;;;;;;4996014;28;20625;-81
2021/07/03 11:52:26;;;;;;;3.10;2.40;;;40.40;37.90;;;;;;5013508;28;20619;-81
2021/07/03 11:55:03;;;;;;;2.90;1.97;;;40.30;38.00;;;;;;5012985;28;20554;-81
2021/07/03 11:57:40;;;;;;;2.97;2.30;;;40.10;37.80;;;;;;4996009;28;20209;-81
2021/07/03 12:00:08;;;;;;;2.10;1.90;;;39.90;37.80;;;;;;5000393;28;20569;-81
2021/07/03 12:02:36;;;;;;;2.13;1.93;;;39.70;37.50;;;;;;5015179;28;20578;-82
2021/07/03 12:05:02;;;;;;;2.30;1.80;;;39.50;37.90;;;;;;5014149;28;20566;-83
2021/07/03 12:07:27;;;;;;;2.40;1.50;;;39.30;38.10;;;;;;5013531;28;20704;-82
2021/07/03 12:10:08;;;;;;;2.27;2.07;;;39.10;38.10;;;;;;5013273;28;20675;-81
2021/07/03 12:12:34;;;;;;;2.10;1.93;;;38.90;38.00;;;;;;5015167;28;20171;-80
2021/07/03 12:15:01;;;;;;;3.20;2.00;;;38.60;37.80;;;;;;4997573;28;20566;-80
2021/07/03 12:17:27;;;;;;;2.57;2.37;;;38.40;38.30;;;;;;5018595;28;20197;-81
2021/07/03 12:20:04;;;;;;;2.50;2.30;;;38.20;39.30;;;;;;5019076;28;20574;-81
2021/07/03 12:22:30;;;;;;;4.63;3.20;;;38.00;39.20;;;;;;5017938;28;20174;-80
2021/07/03 12:24:56;;;;;;;2.40;1.73;;;37.90;39.30;;;;;;5023437;28;20569;-80
2021/07/03 12:27:23;;;;;;;2.03;1.60;;;37.70;39.20;;;;;;5021508;28;20198;-80
2021/07/03 12:29:49;;;;;;;11.93;3.70;;;37.50;39.00;;;;;;5025340;28;20198;-80
2021/07/03 12:32:14;;;;;;;3.40;1.93;;;37.30;39.20;;;;;;5027417;28;20574;-80
2021/07/03 12:34:41;;;;;;;2.97;1.60;;;37.10;39.20;;;;;;5015734;28;20170;-81
2021/07/03 12:37:12;;;;;;;3.20;2.90;;;36.80;39.50;;;;;;5019884;28;20244;-80
2021/07/03 12:39:39;;;;;;;2.50;1.63;;;36.60;39.60;;;;;;5015711;28;20565;-79
2021/07/03 12:42:11;;;;;;;2.70;2.50;;;36.40;40.10;;;;;;4998607;28;20588;-80
2021/07/03 12:44:38;;;;;;;3.60;3.30;;;36.20;40.20;;;;;;5017716;28;20566;-81
2021/07/03 12:47:06;;;;;;;2.30;2.10;;;36.20;40.00;;;;;;5000037;28;20625;-81
2021/07/03 12:49:38;;;;;;;2.20;2.00;;;36.00;39.50;;;;;;5002021;28;20617;-81
2021/07/03 12:52:05;;;;;;;4.27;3.07;;;35.80;40.10;;;;;;5018189;28;20669;-81
2021/07/03 12:54:31;;;;;;;4.10;2.53;;;35.60;40.10;;;;;;5016138;28;20663;-80